createdAt,value
2023-05-19T00:03:31.276Z,8.20
2023-05-19T00:05:34.993Z,8.20
2023-05-19T00:07:38.684Z,8.10
2023-05-19T00:09:41.848Z,8.00
2023-05-19T00:11:45.146Z,8.00
2023-05-19T00:13:49.190Z,7.90
2023-05-19T00:15:52.647Z,7.80
2023-05-19T00:17:56.081Z,7.70
2023-05-19T00:19:58.676Z,7.60
2023-05-19T00:22:01.197Z,7.50
2023-05-19T00:24:03.937Z,7.50
2023-05-19T00:26:06.618Z,7.50
2023-05-19T00:28:09.126Z,7.40
2023-05-19T00:30:12.384Z,7.40
2023-05-19T00:32:15.494Z,7.40
2023-05-19T00:34:18.170Z,7.50
2023-05-19T00:36:20.799Z,7.50
2023-05-19T00:38:23.346Z,7.50
2023-05-19T00:40:27.075Z,7.50
2023-05-19T00:42:29.831Z,7.50
2023-05-19T00:44:32.468Z,7.50
2023-05-19T00:46:35.230Z,7.60
2023-05-19T00:48:37.913Z,7.50
2023-05-19T00:50:40.910Z,7.50
2023-05-19T00:52:44.336Z,7.50
2023-05-19T00:54:47.048Z,7.50
2023-05-19T00:56:49.663Z,7.50
2023-05-19T00:58:52.203Z,7.50
2023-05-19T01:00:55.642Z,7.50
2023-05-19T01:02:58.404Z,7.50
2023-05-19T01:05:01.246Z,7.40
2023-05-19T01:07:04.186Z,7.40
2023-05-19T01:09:06.993Z,7.30
2023-05-19T01:11:10.508Z,7.30
2023-05-19T01:13:13.150Z,7.30
2023-05-19T01:17:33.770Z,7.20
2023-05-19T01:19:41.563Z,7.20
2023-05-19T01:22:02.683Z,7.20
2023-05-19T01:24:10.883Z,7.20
2023-05-19T01:26:38.594Z,7.10
2023-05-19T01:29:00.388Z,7.10
2023-05-19T01:31:04.836Z,7.10
2023-05-19T01:33:08.501Z,7.10
2023-05-19T01:35:12.319Z,7.10
2023-05-19T01:37:15.077Z,7.10
2023-05-19T01:39:18.291Z,7.00
2023-05-19T01:41:21.875Z,6.90
2023-05-19T01:43:26.306Z,6.80
2023-05-19T01:45:29.658Z,6.80
2023-05-19T01:47:32.716Z,6.80
2023-05-19T01:49:35.343Z,6.70
2023-05-19T01:51:38.087Z,6.70
2023-05-19T01:53:41.300Z,6.70
2023-05-19T01:55:45.759Z,6.70
2023-05-19T01:57:50.898Z,6.60
2023-05-19T01:59:56.288Z,6.60
2023-05-19T02:02:01.536Z,6.60
2023-05-19T02:04:12.057Z,6.60
2023-05-19T02:06:19.236Z,6.50
2023-05-19T02:10:44.959Z,6.40
2023-05-19T02:12:49.309Z,6.40
2023-05-19T02:14:54.299Z,6.50
2023-05-19T02:16:57.743Z,6.30
2023-05-19T02:19:00.448Z,6.20
2023-05-19T02:21:03.221Z,6.10
2023-05-19T02:23:05.824Z,6.00
2023-05-19T02:25:09.508Z,5.90
2023-05-19T02:27:12.632Z,5.90
2023-05-19T02:29:15.400Z,5.90
2023-05-19T02:31:18.065Z,5.90
2023-05-19T02:33:22.470Z,5.80
2023-05-19T02:35:25.087Z,5.80
2023-05-19T02:37:28.825Z,5.80
2023-05-19T02:39:33.760Z,5.80
2023-05-19T02:41:37.118Z,5.70
2023-05-19T02:43:40.084Z,5.70
2023-05-19T02:45:42.713Z,5.80
2023-05-19T02:47:45.382Z,5.80
2023-05-19T02:49:48.296Z,5.80
2023-05-19T02:51:51.366Z,5.90
2023-05-19T02:53:53.907Z,5.90
2023-05-19T02:55:58.484Z,5.90
2023-05-19T02:58:01.156Z,5.80
2023-05-19T03:00:05.352Z,5.90
2023-05-19T03:02:07.941Z,6.00
2023-05-19T03:04:10.654Z,6.00
2023-05-19T03:06:13.658Z,6.00
2023-05-19T03:08:16.305Z,5.90
2023-05-19T03:10:19.010Z,5.80
2023-05-19T03:12:21.651Z,5.80
2023-05-19T03:14:24.384Z,5.80
2023-05-19T03:16:27.506Z,5.80
2023-05-19T03:18:30.113Z,5.80
2023-05-19T03:20:32.967Z,5.80
2023-05-19T03:22:36.001Z,5.80
2023-05-19T03:24:38.983Z,5.80
2023-05-19T03:26:42.199Z,5.80
2023-05-19T03:28:44.903Z,5.70
2023-05-19T03:30:49.631Z,5.70
2023-05-19T03:32:54.163Z,5.70
2023-05-19T03:34:57.202Z,5.70
2023-05-19T03:37:00.289Z,5.70
2023-05-19T03:39:03.297Z,5.70
2023-05-19T03:41:06.010Z,5.70
2023-05-19T03:43:08.664Z,5.70
2023-05-19T03:47:32.195Z,5.70
2023-05-19T03:49:36.693Z,5.70
2023-05-19T03:51:41.104Z,5.70
2023-05-19T03:53:45.676Z,5.60
2023-05-19T03:55:49.241Z,5.60
2023-05-19T03:57:52.452Z,5.50
2023-05-19T03:59:55.086Z,5.10
2023-05-19T04:01:57.778Z,5.50
2023-05-19T04:04:02.108Z,5.40
2023-05-19T04:06:05.381Z,5.40
2023-05-19T04:08:08.145Z,5.70
2023-05-19T04:10:11.491Z,5.40
2023-05-19T04:12:14.034Z,5.40
2023-05-19T04:14:16.603Z,5.40
2023-05-19T04:16:19.402Z,5.40
2023-05-19T04:18:21.990Z,5.50
2023-05-19T04:20:24.558Z,5.50
2023-05-19T04:22:27.306Z,5.50
2023-05-19T04:24:30.050Z,5.60
2023-05-19T04:26:33.900Z,5.60
2023-05-19T04:28:38.467Z,5.70
2023-05-19T04:30:42.108Z,5.80
2023-05-19T04:32:44.664Z,5.90
2023-05-19T04:34:47.353Z,6.00
2023-05-19T04:36:53.342Z,6.00
2023-05-19T04:38:58.751Z,6.10
2023-05-19T04:41:02.348Z,6.20
2023-05-19T04:43:06.657Z,6.30
2023-05-19T04:45:11.684Z,6.30
2023-05-19T04:47:15.646Z,6.40
2023-05-19T04:49:18.944Z,6.40
2023-05-19T04:51:21.535Z,6.40
2023-05-19T04:53:25.285Z,6.50
2023-05-19T04:55:27.952Z,6.50
2023-05-19T04:57:30.647Z,6.60
2023-05-19T04:59:33.400Z,6.60
2023-05-19T05:01:37.951Z,6.70
2023-05-19T05:03:41.658Z,6.70
2023-05-19T05:05:44.222Z,6.80
2023-05-19T05:07:47.167Z,6.90
2023-05-19T05:09:49.906Z,6.90
2023-05-19T05:11:53.535Z,7.00
2023-05-19T05:13:57.415Z,7.00
2023-05-19T05:16:01.651Z,7.10
2023-05-19T05:18:05.247Z,7.20
2023-05-19T05:20:08.840Z,7.20
2023-05-19T05:22:12.875Z,7.30
2023-05-19T05:24:16.671Z,7.40
2023-05-19T05:26:22.590Z,7.50
2023-05-19T05:28:25.304Z,7.60
2023-05-19T05:30:28.881Z,7.60
2023-05-19T05:32:32.850Z,7.70
2023-05-19T05:34:37.702Z,7.80
2023-05-19T05:36:40.774Z,7.90
2023-05-19T05:38:43.597Z,8.10
2023-05-19T05:40:46.326Z,8.10
2023-05-19T05:42:49.549Z,8.40
2023-05-19T05:44:52.752Z,8.20
2023-05-19T05:46:56.378Z,8.30
2023-05-19T05:48:59.988Z,8.40
2023-05-19T05:51:03.555Z,8.40
2023-05-19T05:53:07.767Z,7.80
2023-05-19T05:55:12.999Z,8.50
2023-05-19T05:57:16.249Z,8.70
2023-05-19T05:59:19.807Z,8.70
2023-05-19T06:01:23.588Z,8.80
2023-05-19T06:03:26.941Z,8.90
2023-05-19T06:05:31.042Z,9.00
2023-05-19T06:07:33.836Z,9.10
2023-05-19T06:09:36.744Z,9.20
2023-05-19T06:11:40.069Z,9.30
2023-05-19T06:13:42.970Z,9.40
2023-05-19T06:15:47.458Z,9.60
2023-05-19T06:17:51.967Z,9.60
2023-05-19T06:19:54.669Z,9.80
2023-05-19T06:21:57.328Z,9.80
2023-05-19T06:24:00.554Z,9.80
2023-05-19T06:26:04.476Z,9.80
2023-05-19T06:28:08.697Z,10.00
2023-05-19T06:30:12.338Z,10.00
2023-05-19T06:32:16.799Z,10.10
2023-05-19T06:34:20.584Z,10.10
2023-05-19T06:36:23.101Z,10.10
2023-05-19T06:38:26.869Z,10.20
2023-05-19T06:40:29.665Z,10.20
2023-05-19T06:42:32.724Z,10.30
2023-05-19T06:44:37.185Z,10.30
2023-05-19T06:46:41.671Z,10.40
2023-05-19T06:48:44.364Z,10.70
2023-05-19T06:50:47.523Z,10.70
2023-05-19T06:52:50.430Z,10.70
2023-05-19T06:54:53.886Z,10.90
2023-05-19T06:56:56.561Z,11.10
2023-05-19T06:58:59.249Z,11.10
2023-05-19T07:01:26.000Z,11.30
2023-05-19T07:03:30.982Z,11.30
2023-05-19T07:05:34.673Z,10.80
2023-05-19T07:07:38.525Z,11.50
2023-05-19T07:09:42.400Z,11.60
2023-05-19T07:11:45.072Z,11.60
2023-05-19T07:13:47.794Z,11.90
2023-05-19T07:15:54.054Z,12.10
2023-05-19T07:17:58.063Z,12.10
2023-05-19T07:20:01.460Z,12.10
2023-05-19T07:22:05.130Z,12.20
2023-05-19T07:24:07.773Z,12.20
2023-05-19T07:26:10.439Z,12.20
2023-05-19T07:28:12.970Z,12.30
2023-05-19T07:30:15.590Z,12.40
2023-05-19T07:32:18.184Z,12.50
2023-05-19T07:34:21.366Z,12.60
2023-05-19T07:36:23.937Z,12.70
2023-05-19T07:38:28.130Z,12.80
2023-05-19T07:40:30.850Z,12.90
2023-05-19T07:42:34.734Z,12.90
2023-05-19T07:44:37.683Z,13.00
2023-05-19T07:46:40.282Z,13.20
2023-05-19T07:48:42.872Z,13.20
2023-05-19T07:50:45.600Z,13.30
2023-05-19T07:52:48.176Z,13.50
2023-05-19T07:54:51.149Z,13.60
2023-05-19T07:56:53.929Z,13.80
2023-05-19T07:58:56.450Z,14.10
2023-05-19T08:00:59.557Z,14.30
2023-05-19T08:03:02.580Z,14.40
2023-05-19T08:05:06.363Z,14.40
2023-05-19T08:07:09.210Z,14.60
2023-05-19T08:09:11.869Z,14.80
2023-05-19T08:13:34.667Z,15.00
2023-05-19T08:15:37.570Z,15.10
2023-05-19T08:17:40.200Z,15.30
2023-05-19T08:19:42.803Z,15.40
2023-05-19T08:21:45.344Z,15.50
2023-05-19T08:23:47.976Z,15.50
2023-05-19T08:25:50.732Z,15.50
2023-05-19T08:27:53.508Z,15.70
2023-05-19T08:29:56.892Z,15.90
2023-05-19T08:31:59.947Z,16.20
2023-05-19T08:34:02.992Z,16.40
2023-05-19T08:36:06.556Z,16.60
2023-05-19T08:38:09.111Z,16.80
2023-05-19T08:40:14.815Z,17.00
2023-05-19T08:42:17.500Z,17.10
2023-05-19T08:44:20.351Z,17.30
2023-05-19T08:46:24.714Z,17.50
2023-05-19T08:48:28.620Z,17.80
2023-05-19T08:50:33.836Z,17.80
2023-05-19T08:52:38.446Z,17.80
2023-05-19T08:54:44.401Z,17.50
2023-05-19T08:56:47.252Z,17.40
2023-05-19T08:58:50.303Z,17.20
2023-05-19T09:03:18.092Z,17.70
2023-05-19T09:05:11.679Z,17.80
2023-05-19T09:07:14.770Z,17.40
2023-05-19T09:09:17.340Z,17.40
2023-05-19T09:11:21.639Z,17.40
2023-05-19T09:13:24.353Z,17.70
2023-05-19T09:15:27.748Z,18.10
2023-05-19T09:17:30.449Z,18.50
2023-05-19T09:19:33.107Z,18.70
2023-05-19T09:21:36.702Z,18.80
2023-05-19T09:25:58.137Z,18.70
2023-05-19T09:28:00.914Z,19.00
2023-05-19T09:30:08.690Z,18.30
2023-05-19T09:32:11.680Z,18.40
2023-05-19T09:34:14.402Z,18.70
2023-05-19T09:36:16.980Z,19.80
2023-05-19T09:38:20.939Z,19.10
2023-05-19T09:40:25.698Z,18.70
2023-05-19T09:42:29.511Z,18.50
2023-05-19T09:44:32.526Z,18.80
2023-05-19T09:46:36.420Z,18.70
2023-05-19T09:48:39.201Z,18.60
2023-05-19T09:50:43.776Z,18.70
2023-05-19T09:52:46.307Z,18.20
2023-05-19T09:54:49.533Z,18.60
2023-05-19T09:56:54.284Z,18.80
2023-05-19T09:58:56.919Z,18.90
2023-05-19T10:00:59.958Z,18.50
2023-05-19T10:03:04.215Z,18.10
2023-05-19T10:05:08.219Z,17.90
2023-05-19T10:07:11.530Z,18.20
2023-05-19T10:09:14.875Z,18.60
2023-05-19T10:11:17.896Z,18.90
2023-05-19T10:13:21.306Z,19.00
2023-05-19T10:15:25.072Z,18.70
2023-05-19T10:17:28.008Z,18.20
2023-05-19T10:19:30.589Z,18.30
2023-05-19T10:21:33.260Z,18.20
2023-05-19T10:23:35.817Z,18.30
2023-05-19T10:25:38.625Z,18.60
2023-05-19T10:27:43.604Z,19.10
2023-05-19T10:29:48.176Z,19.10
2023-05-19T10:31:52.472Z,19.00
2023-05-19T10:34:02.172Z,18.30
2023-05-19T10:36:13.320Z,18.60
2023-05-19T10:38:19.016Z,18.70
2023-05-19T10:40:23.603Z,19.10
2023-05-19T10:42:29.038Z,19.50
2023-05-19T10:44:34.238Z,19.40
2023-05-19T10:46:37.305Z,19.00
2023-05-19T10:48:41.691Z,19.10
2023-05-19T10:50:45.642Z,19.00
2023-05-19T10:52:52.378Z,18.60
2023-05-19T10:54:55.089Z,18.40
2023-05-19T10:56:57.738Z,18.50
2023-05-19T10:59:00.912Z,18.90
2023-05-19T11:01:06.089Z,18.90
2023-05-19T11:03:15.270Z,18.70
2023-05-19T11:05:19.128Z,18.70
2023-05-19T11:07:21.777Z,19.20
2023-05-19T11:09:34.221Z,19.30
2023-05-19T11:11:44.429Z,19.10
2023-05-19T11:13:48.174Z,19.40
2023-05-19T11:15:50.960Z,19.70
2023-05-19T11:17:53.828Z,19.60
2023-05-19T11:19:57.157Z,19.30
2023-05-19T11:22:08.639Z,19.70
2023-05-19T11:24:12.979Z,19.20
2023-05-19T11:26:15.525Z,19.30
2023-05-19T11:28:18.957Z,19.40
2023-05-19T11:30:21.659Z,19.50
2023-05-19T11:32:26.861Z,19.50
2023-05-19T11:34:30.534Z,19.40
2023-05-19T11:36:33.294Z,19.70
2023-05-19T11:38:35.888Z,19.90
2023-05-19T11:40:38.465Z,20.20
2023-05-19T11:42:40.987Z,20.30
2023-05-19T11:44:45.613Z,20.40
2023-05-19T11:46:48.347Z,20.60
2023-05-19T11:48:51.193Z,20.60
2023-05-19T11:50:53.891Z,20.40
2023-05-19T11:52:57.124Z,20.50
2023-05-19T11:55:00.919Z,20.60
2023-05-19T11:57:04.095Z,20.70
2023-05-19T11:59:06.653Z,20.90
2023-05-19T12:01:09.685Z,20.90
2023-05-19T12:03:12.827Z,20.20
2023-05-19T12:05:19.452Z,20.20
2023-05-19T12:07:23.395Z,19.90
2023-05-19T12:09:27.803Z,19.70
2023-05-19T12:11:31.255Z,20.00
2023-05-19T12:13:34.080Z,20.10
2023-05-19T12:15:36.875Z,20.10
2023-05-19T12:17:39.746Z,19.90
2023-05-19T12:19:44.396Z,19.80
2023-05-19T12:21:47.220Z,20.30
2023-05-19T12:23:49.864Z,20.50
2023-05-19T12:25:52.990Z,20.40
2023-05-19T12:27:58.345Z,19.90
2023-05-19T12:30:02.785Z,20.00
2023-05-19T12:32:05.945Z,20.30
2023-05-19T12:34:09.310Z,20.00
2023-05-19T12:36:13.049Z,20.30
2023-05-19T12:38:15.810Z,20.80
2023-05-19T12:40:18.441Z,20.80
2023-05-19T12:42:20.992Z,20.60
2023-05-19T12:44:24.563Z,20.40
2023-05-19T12:46:27.138Z,19.90
2023-05-19T12:48:29.816Z,19.60
2023-05-19T12:50:33.817Z,19.90
2023-05-19T12:52:41.799Z,20.00
2023-05-19T12:54:44.421Z,20.10
2023-05-19T12:56:50.595Z,20.30
2023-05-19T12:58:54.828Z,20.60
2023-05-19T13:00:59.667Z,20.80
2023-05-19T13:03:04.545Z,20.00
2023-05-19T13:05:07.541Z,20.00
2023-05-19T13:07:10.185Z,20.10
2023-05-19T13:09:13.607Z,20.40
2023-05-19T13:11:17.208Z,20.70
2023-05-19T13:13:19.941Z,21.00
2023-05-19T13:15:23.907Z,21.10
2023-05-19T13:17:26.450Z,21.10
2023-05-19T13:19:29.129Z,21.30
2023-05-19T13:21:31.623Z,21.20
2023-05-19T13:23:34.649Z,21.00
2023-05-19T13:25:37.327Z,20.40
2023-05-19T13:27:40.256Z,20.50
2023-05-19T13:29:42.820Z,20.50
2023-05-19T13:33:59.501Z,20.50
2023-05-19T13:36:02.076Z,20.00
2023-05-19T13:38:04.980Z,19.90
2023-05-19T13:40:08.926Z,19.80
2023-05-19T13:42:11.487Z,19.90
2023-05-19T13:44:14.060Z,19.90
2023-05-19T13:46:16.654Z,20.10
2023-05-19T13:48:19.361Z,20.30
2023-05-19T13:50:21.970Z,20.90
2023-05-19T13:52:24.600Z,20.90
2023-05-19T13:54:27.128Z,20.30
2023-05-19T13:56:31.393Z,20.10
2023-05-19T13:58:33.933Z,19.60
2023-05-19T14:00:36.799Z,19.30
2023-05-19T14:02:40.040Z,19.50
2023-05-19T14:04:42.891Z,19.80
2023-05-19T14:06:46.037Z,19.90
2023-05-19T14:08:48.549Z,20.10
2023-05-19T14:10:51.587Z,20.40
2023-05-19T14:13:14.500Z,20.80
2023-05-19T14:14:58.866Z,21.00
2023-05-19T14:17:02.664Z,20.80
2023-05-19T14:19:05.225Z,20.80
2023-05-19T14:21:08.003Z,20.80
2023-05-19T14:23:10.564Z,20.60
2023-05-19T14:25:13.089Z,20.40
2023-05-19T14:27:15.660Z,20.20
2023-05-19T14:29:18.228Z,20.40
2023-05-19T14:31:20.911Z,20.80
2023-05-19T14:33:24.164Z,21.10
2023-05-19T14:35:26.689Z,21.20
2023-05-19T14:37:31.128Z,21.00
2023-05-19T14:39:33.674Z,20.60
2023-05-19T14:41:36.334Z,20.30
2023-05-19T14:43:40.688Z,20.10
2023-05-19T14:45:43.494Z,19.80
2023-05-19T14:47:47.076Z,19.40
2023-05-19T14:49:50.563Z,19.30
2023-05-19T14:51:53.131Z,19.70
2023-05-19T14:53:55.661Z,19.90
2023-05-19T14:55:58.186Z,20.20
2023-05-19T14:58:00.789Z,20.50
2023-05-19T15:00:03.654Z,20.70
2023-05-19T15:02:07.004Z,20.80
2023-05-19T15:04:09.822Z,20.60
2023-05-19T15:06:12.368Z,20.70
2023-05-19T15:08:14.873Z,20.90
2023-05-19T15:10:19.655Z,20.50
2023-05-19T15:12:22.308Z,20.70
2023-05-19T15:14:24.834Z,20.10
2023-05-19T15:16:27.401Z,20.20
2023-05-19T15:18:29.982Z,19.90
2023-05-19T15:20:32.640Z,19.80
2023-05-19T15:22:35.927Z,19.90
2023-05-19T15:24:38.608Z,20.40
2023-05-19T15:26:41.125Z,20.80
2023-05-19T15:28:43.671Z,20.80
2023-05-19T15:30:46.251Z,21.00
2023-05-19T15:32:48.910Z,20.50
2023-05-19T15:34:51.470Z,20.20
2023-05-19T15:36:54.143Z,20.10
2023-05-19T15:38:56.687Z,20.10
2023-05-19T15:40:59.194Z,20.40
2023-05-19T15:43:01.768Z,20.40
2023-05-19T15:45:05.520Z,20.40
2023-05-19T15:47:08.048Z,20.40
2023-05-19T15:49:12.862Z,20.70
2023-05-19T15:51:15.664Z,20.40
2023-05-19T15:53:19.624Z,20.40
2023-05-19T15:55:22.190Z,20.00
2023-05-19T15:57:24.720Z,20.20
2023-05-19T15:59:27.264Z,20.10
2023-05-19T16:01:30.197Z,20.30
2023-05-19T16:03:32.880Z,20.40
2023-05-19T16:05:35.736Z,20.30
2023-05-19T16:07:38.274Z,19.60
2023-05-19T16:09:40.932Z,20.20
2023-05-19T16:11:43.493Z,20.50
2023-05-19T16:13:46.405Z,20.10
2023-05-19T16:15:49.002Z,20.00
2023-05-19T16:17:53.267Z,20.30
2023-05-19T16:19:55.898Z,20.50
2023-05-19T16:21:58.482Z,20.30
2023-05-19T16:24:01.055Z,19.90
2023-05-19T16:26:03.638Z,19.50
2023-05-19T16:28:06.271Z,19.50
2023-05-19T16:30:10.891Z,19.40
2023-05-19T16:32:13.813Z,19.50
2023-05-19T16:34:16.595Z,19.60
2023-05-19T16:36:21.203Z,19.90
2023-05-19T16:38:23.742Z,19.90
2023-05-19T16:40:28.208Z,20.20
2023-05-19T16:42:31.799Z,20.20
2023-05-19T16:44:34.325Z,20.30
2023-05-19T16:46:41.246Z,20.40
2023-05-19T16:48:43.756Z,20.30
2023-05-19T16:50:48.492Z,20.20
2023-05-19T16:52:51.125Z,20.30
2023-05-19T16:54:53.672Z,20.50
2023-05-19T16:56:56.284Z,20.50
2023-05-19T16:58:58.887Z,20.30
2023-05-19T17:01:02.641Z,20.40
2023-05-19T17:03:05.569Z,20.50
2023-05-19T17:05:08.934Z,20.20
2023-05-19T17:07:15.023Z,20.30
2023-05-19T17:09:17.549Z,19.90
2023-05-19T17:11:20.985Z,20.00
2023-05-19T17:13:23.497Z,19.80
2023-05-19T17:15:26.043Z,19.80
2023-05-19T17:17:28.815Z,19.70
2023-05-19T17:19:32.006Z,19.90
2023-05-19T17:21:34.792Z,19.80
2023-05-19T17:23:37.734Z,19.70
2023-05-19T17:25:40.458Z,19.90
2023-05-19T17:30:00.701Z,20.00
2023-05-19T17:32:03.718Z,19.90
2023-05-19T17:34:06.251Z,20.00
2023-05-19T17:36:08.904Z,20.00
2023-05-19T17:38:11.547Z,19.90
2023-05-19T17:40:14.548Z,19.70
2023-05-19T17:42:17.185Z,19.70
2023-05-19T17:44:19.804Z,19.40
2023-05-19T17:46:22.402Z,19.40
2023-05-19T17:48:25.473Z,19.30
2023-05-19T17:50:27.990Z,19.30
2023-05-19T17:52:32.346Z,19.10
2023-05-19T17:54:35.595Z,18.90
2023-05-19T17:56:40.047Z,19.00
2023-05-19T17:58:43.701Z,19.10
2023-05-19T18:00:46.474Z,19.20
2023-05-19T18:02:50.082Z,19.30
2023-05-19T18:04:53.727Z,19.30
2023-05-19T18:06:56.891Z,19.30
2023-05-19T18:09:01.447Z,19.10
2023-05-19T18:11:08.617Z,19.10
2023-05-19T18:13:13.906Z,19.20
2023-05-19T18:15:17.359Z,19.20
2023-05-19T18:17:19.887Z,19.20
2023-05-19T18:19:24.517Z,19.10
2023-05-19T18:21:28.959Z,19.10
2023-05-19T18:23:33.876Z,19.10
2023-05-19T18:25:38.875Z,19.30
2023-05-19T18:27:46.748Z,18.80
2023-05-19T18:29:51.711Z,18.70
2023-05-19T18:31:54.744Z,18.30
2023-05-19T18:33:59.977Z,18.10
2023-05-19T18:36:04.861Z,17.80
2023-05-19T18:38:09.182Z,17.70
2023-05-19T18:40:14.348Z,17.60
2023-05-19T18:42:18.437Z,17.50
2023-05-19T18:44:23.067Z,17.40
2023-05-19T18:46:27.724Z,17.30
2023-05-19T18:48:33.017Z,17.10
2023-05-19T18:50:37.012Z,17.10
2023-05-19T18:52:40.856Z,17.00
2023-05-19T18:54:46.813Z,17.00
2023-05-19T18:56:50.216Z,16.80
2023-05-19T18:58:54.642Z,16.80
2023-05-19T19:00:58.325Z,16.80
2023-05-19T19:03:02.985Z,16.70
2023-05-19T19:05:09.112Z,16.60
2023-05-19T19:07:13.530Z,16.60
2023-05-19T19:09:17.390Z,16.60
2023-05-19T19:11:21.767Z,16.60
2023-05-19T19:13:24.729Z,16.50
2023-05-19T19:15:28.941Z,16.50
2023-05-19T19:17:32.662Z,16.40
2023-05-19T19:19:37.632Z,16.30
2023-05-19T19:21:41.959Z,16.20
2023-05-19T19:23:45.937Z,16.10
2023-05-19T19:25:49.474Z,16.10
2023-05-19T19:27:54.805Z,16.10
2023-05-19T19:29:59.009Z,16.00
2023-05-19T19:32:02.648Z,16.00
2023-05-19T19:34:07.832Z,15.90
2023-05-19T19:36:11.001Z,15.90
2023-05-19T19:38:14.828Z,15.90
2023-05-19T19:40:18.592Z,15.80
2023-05-19T19:42:22.403Z,15.80
2023-05-19T19:44:25.993Z,15.70
2023-05-19T19:46:29.206Z,15.80
2023-05-19T19:48:32.337Z,15.70
2023-05-19T19:50:36.253Z,15.80
2023-05-19T19:52:39.895Z,15.80
2023-05-19T19:54:43.092Z,15.70
2023-05-19T19:56:47.136Z,15.60
2023-05-19T20:01:07.474Z,15.60
2023-05-19T20:03:11.270Z,15.60
2023-05-19T20:05:14.988Z,15.50
2023-05-19T20:07:20.472Z,15.50
2023-05-19T20:09:24.702Z,15.40
2023-05-19T20:11:28.504Z,15.40
2023-05-19T20:13:32.762Z,15.40
2023-05-19T20:15:36.492Z,15.40
2023-05-19T20:17:39.918Z,15.40
2023-05-19T20:19:43.472Z,15.30
2023-05-19T20:21:46.842Z,15.30
2023-05-19T20:23:51.350Z,15.10
2023-05-19T20:26:10.740Z,15.10
2023-05-19T20:27:59.152Z,15.00
2023-05-19T20:30:01.670Z,15.00
2023-05-19T20:32:19.562Z,14.90
2023-05-19T20:34:23.852Z,14.70
2023-05-19T20:36:27.047Z,14.60
2023-05-19T20:38:29.686Z,14.40
2023-05-19T20:40:32.556Z,14.30
2023-05-19T20:42:35.375Z,14.20
2023-05-19T20:44:38.327Z,14.10
2023-05-19T20:46:41.159Z,14.00
2023-05-19T20:48:44.724Z,13.90
2023-05-19T20:50:47.664Z,13.90
2023-05-19T20:52:50.284Z,13.90
2023-05-19T20:54:52.810Z,13.90
2023-05-19T20:56:55.451Z,13.80
2023-05-19T20:58:57.981Z,13.90
2023-05-19T21:01:00.636Z,13.90
2023-05-19T21:03:03.378Z,13.90
2023-05-19T21:05:06.760Z,13.90
2023-05-19T21:07:09.487Z,14.00
2023-05-19T21:09:12.097Z,14.10
2023-05-19T21:11:14.609Z,14.20
2023-05-19T21:13:17.528Z,14.20
2023-05-19T21:15:20.104Z,14.30
2023-05-19T21:17:22.741Z,14.40
2023-05-19T21:19:25.552Z,14.40
2023-05-19T21:21:28.267Z,14.50
2023-05-19T21:23:30.871Z,14.50
2023-05-19T21:25:33.409Z,14.60
2023-05-19T21:27:35.935Z,14.60
2023-05-19T21:29:38.452Z,14.70
2023-05-19T21:31:41.121Z,14.70
2023-05-19T21:33:44.102Z,14.60
2023-05-19T21:35:46.699Z,14.60
2023-05-19T21:37:49.345Z,14.50
2023-05-19T21:39:51.975Z,14.50
2023-05-19T21:41:54.519Z,14.50
2023-05-19T21:43:57.041Z,14.40
2023-05-19T21:45:59.631Z,14.40
2023-05-19T21:48:02.314Z,14.30
2023-05-19T21:50:06.198Z,14.40
2023-05-19T21:52:08.886Z,14.40
2023-05-19T21:54:11.469Z,14.40
2023-05-19T21:58:30.530Z,14.30
2023-05-19T22:00:33.671Z,14.40
2023-05-19T22:02:36.644Z,14.40
2023-05-19T22:04:39.216Z,14.30
2023-05-19T22:06:41.871Z,14.20
2023-05-19T22:08:44.405Z,14.20
2023-05-19T22:10:49.852Z,14.20
2023-05-19T22:12:52.401Z,14.10
2023-05-19T22:14:54.942Z,14.10
2023-05-19T22:16:57.605Z,14.00
2023-05-19T22:19:00.268Z,14.00
2023-05-19T22:21:03.226Z,13.90
2023-05-19T22:23:05.962Z,13.80
2023-05-19T22:25:09.069Z,13.80
2023-05-19T22:27:11.656Z,13.60
2023-05-19T22:29:16.038Z,13.60
2023-05-19T22:33:32.982Z,13.40
2023-05-19T22:35:35.510Z,13.30
2023-05-19T22:37:38.085Z,13.30
2023-05-19T22:39:40.753Z,13.20
2023-05-19T22:41:43.366Z,13.10
2023-05-19T22:43:45.913Z,13.00
2023-05-19T22:45:48.496Z,12.90
2023-05-19T22:47:51.179Z,13.60
2023-05-19T22:49:54.961Z,12.90
2023-05-19T22:51:58.066Z,12.90
2023-05-19T22:54:00.624Z,12.80
2023-05-19T22:56:03.274Z,12.80
2023-05-19T22:58:06.171Z,12.70
2023-05-19T23:00:10.086Z,12.70
2023-05-19T23:02:12.938Z,12.60
2023-05-19T23:04:15.574Z,12.60
2023-05-19T23:06:18.114Z,12.60
2023-05-19T23:08:20.670Z,12.50
2023-05-19T23:10:23.238Z,12.40
2023-05-19T23:12:25.751Z,12.30
2023-05-19T23:14:28.290Z,12.20
2023-05-19T23:16:30.848Z,12.10
2023-05-19T23:18:33.443Z,12.00
2023-05-19T23:20:35.975Z,11.90
2023-05-19T23:22:38.543Z,11.80
2023-05-19T23:24:41.065Z,11.70
2023-05-19T23:26:43.761Z,11.60
2023-05-19T23:28:46.512Z,11.50
2023-05-19T23:30:49.152Z,11.50
2023-05-19T23:32:52.518Z,11.40
2023-05-19T23:34:55.457Z,11.40
2023-05-19T23:37:20.116Z,11.40
2023-05-19T23:39:25.886Z,11.40
2023-05-19T23:41:28.647Z,11.50
2023-05-19T23:43:31.702Z,11.40
2023-05-19T23:45:34.465Z,11.40
2023-05-19T23:47:37.126Z,11.40
2023-05-19T23:49:39.727Z,11.30
2023-05-19T23:51:42.343Z,11.10
2023-05-19T23:56:00.528Z,10.90
2023-05-19T23:58:03.054Z,10.80
